Weather observations for the past three days for
Aurora, Aurora Municipal Airport
Metric (Imperial)
Date Time (cdt) Wind (kph) Vis. (km) Weather Sky Cond. Temperature (ºC) Relative Humidity Wind Chill (°C) Heat Index (°C) Pressure Precipitation (cm)
Air Dwpt 6 hour altimeter (cm) sea level (mb) 1 hr 3 hr 6 hr
Max. Min.
04 06:55 NW 9 16.09 Fair CLR 9 2.7 14 8.2 65% 8 75.29 0.0
04 06:35 W 9 16.09 Fair CLR 8.5 2.6 67% 7 75.26 0.0
04 06:15 W 7 16.09 Fair CLR 8.4 2.5 67% 8 75.26 0.0
04 05:55 W 11 16.09 Fair CLR 8.3 2 65% 7 75.26 0.0
04 05:35 W 11 16.09 Fair CLR 8.3 1.7 63% 7 75.26 0.0
04 05:15 W 6 16.09 Fair CLR 8.7 1.8 62% 75.26 0.0
04 04:55 Calm 16.09 Fair CLR 10.7 1.9 55% 75.29 0.0
04 04:35 S 11 16.09 Fair CLR 13.1 2 47% 75.29 0.0
04 04:15 S 9 16.09 Fair CLR 13.6 1.9 45% 75.29 0.0
04 03:55 S 7 16.09 Fair CLR 13.5 1.9 46% 75.31 0.0
04 03:35 S 7 16.09 Fair CLR 13.7 1.9 45% 75.34 0.0
04 03:15 S 11 16.09 Fair CLR 13.9 1.8 44% 75.36 0.0
04 02:55 S 11 16.09 Fair CLR 12.5 2.3 50% 75.34 0.0
04 02:35 S 13 16.09 Fair CLR 13.1 2.4 49% 75.36 0.0
04 02:15 S 11 16.09 Fair CLR 13 2 47% 75.39 0.0
04 01:55 S 11 16.09 Fair CLR 13.3 1.5 45% 75.44 0.0
04 01:35 S 9 16.09 Fair CLR 13.7 1.3 43% 75.46 0.0
04 01:15 S 11 16.09 Fair CLR 12.9 1.5 46% 75.49 0.0
04 00:55 S 11 16.09 Fair CLR 13.8 1.2 23 12.1 43% 75.49 0.0
04 00:35 SE 7 16.09 Fair CLR 14 1.4 43% 75.51 0.0
04 00:15 S 7 16.09 Fair CLR 14.9 1.3 40% 75.54 0.0
03 23:55 SE 7 16.09 Fair CLR 12.9 2.2 48% 75.57 0.0
03 23:35 SE 7 16.09 Fair CLR 13.1 2.4 49% 75.57 0.0
03 23:15 SE 7 16.09 Fair CLR 13.9 2.3 46% 75.57 0.0
03 22:55 SE 11 16.09 Fair CLR 15.5 2.1 41% 75.59 0.0
03 22:35 SE 11 16.09 Fair CLR 15.4 2.6 42% 75.62 0.0
03 22:15 SE 11 16.09 Fair CLR 16.1 1.8 38% 75.62 0.0
03 21:55 SE 7 16.09 Fair CLR 17.1 2.1 37% 75.64 0.0
03 21:35 SE 7 16.09 Fair CLR 16.9 2.7 39% 75.62 0.0
03 21:15 E 7 16.09 Fair CLR 17 3.1 40% 75.64 0.0
03 20:55 NE 7 16.09 Fair CLR 19.1 2.4 33% 75.64 0.0
03 20:35 Calm 16.09 Fair CLR 19.7 3 33% 75.64 0.0
03 20:15 N 9 16.09 Fair CLR 20.7 2.7 31% 75.64 0.0
03 19:55 NE 7 16.09 Fair CLR 22 2 27% 75.67 0.0
03 19:35 NE 6 16.09 Fair CLR 22.3 1.4 25% 75.67 0.0
03 19:15 N 7 16.09 Fair CLR 22.6 1.2 24% 75.69 0.0
03 18:55 NE 7 16.09 Fair CLR 23.1 0.2 24.1 22.4 22% 75.72 0.0
03 18:35 NE 9 16.09 Fair CLR 23.3 1.1 23% 75.72 0.0
03 18:15 NE 7 16.09 Fair CLR 23.4 0.2 22% 75.74 0.0
03 17:35 Calm 16.09 Fair CLR 23.1 0.2 22% 75.74 0.0
03 17:15 Calm 16.09 Fair CLR 23 0.6 23% 75.74 0.0
03 16:55 E 9 16.09 Fair CLR 23.6 1.3 23% 75.77 0.0
03 16:35 Calm 16.09 Fair CLR 23.4 0.9 23% 75.77 0.0
03 16:15 NW 6 16.09 Fair CLR 23 0.2 22% 75.79 0.0
03 15:55 N 13 16.09 Fair CLR 23.3 0.7 23% 75.82 0.0
03 15:35 N 15 16.09 Fair CLR 23.3 0.9 23% 75.84 0.0
03 15:15 NE 11 16.09 Fair CLR 24 0.9 22% 25 75.87 0.0
03 14:55 E 7 16.09 Fair CLR 23.2 0.5 22% 75.87 0.0
03 14:35 N 19 16.09 Fair CLR 23.7 1.3 23% 75.9 0.0
03 14:15 N 17 G 28 16.09 Fair CLR 23.1 1.5 24% 75.9 0.0
03 13:55 N 13 G 30 16.09 Fair CLR 23.1 1.6 24% 75.92 0.0
03 13:35 N 11 16.09 Fair CLR 22.6 0.7 24% 75.95 0.0
03 13:15 N 22 G 30 16.09 Fair CLR 22.8 0.7 23% 75.95 0.0
03 12:55 NW 15 16.09 Fair CLR 23 0.9 23 8 23% 75.97 0.0
03 12:35 N 11 16.09 Fair CLR 22.5 -0.2 22% 75.97 0.0
03 12:15 NE 20 G 28 16.09 Fair CLR 22.3 0.6 24% 76 0.0
03 11:55 NE 19 G 30 16.09 Fair CLR 22 1.2 25% 76 0.0
03 11:35 N 15 G 26 16.09 Fair CLR 21 2.1 29% 76 0.0
03 11:15 N 20 16.09 Fair CLR 20.9 1.8 28% 76.02 0.0
03 10:55 N 22 G 28 16.09 Fair CLR 20 2.7 32% 76.02 0.0
03 10:35 N 11 16.09 Fair CLR 19.3 2.7 33% 76.02 0.0
03 10:15 NW 19 16.09 Fair CLR 18.3 2.4 35% 76.05 0.0
03 09:55 N 19 16.09 Fair CLR 17.9 2.1 35% 76.05 0.0
03 09:35 N 19 16.09 Fair CLR 17.3 2 36% 76.02 0.0
03 09:15 NW 17 16.09 Fair CLR 17 1.6 36% 76.02 0.0
03 08:55 NW 13 16.09 Fair CLR 16.3 1.9 38% 76 0.0
03 08:35 NW 11 16.09 Fair CLR 15.5 2.6 42% 76 0.0
03 08:15 W 11 16.09 Fair CLR 13.9 2.8 47% 75.97 0.0
03 07:55 W 9 16.09 Fair CLR 11.7 2.7 54% 75.95 0.0
03 07:35 SW 9 16.09 Fair CLR 10.2 2.6 60% 75.95 0.0
03 07:15 W 9 16.09 Fair CLR 8.7 1.8 62% 7 75.92 0.0
03 06:55 W 13 16.09 Fair CLR 7.9 1.2 12.5 6.5 63% 6 75.92 0.0
03 06:35 SW 15 16.09 Fair CLR 7.5 1.2 65% 5 75.9 0.0
03 06:15 SW 13 16.09 Fair CLR 7.1 0.3 62% 5 75.9 0.0
03 05:55 SW 17 16.09 Fair CLR 8.8 1.3 60% 7 75.84 0.0
03 05:35 SW 15 16.09 Fair CLR 8.8 0.8 58% 7 75.87 0.0
03 05:15 W 9 16.09 Fair CLR 9.4 0.6 55% 8 75.92 0.0
03 04:55 W 17 G 35 16.09 Fair CLR 11.6 0.6 47% 75.95 0.0
03 04:35 SW 22 16.09 Fair CLR 11 -0.5 45% 75.84 0.0
03 04:15 SW 24 16.09 Fair CLR 11 -0.8 44% 75.84 0.0
03 03:55 SW 24 16.09 Fair CLR 11.1 -1 43% 75.84 0.0
03 03:35 SW 26 16.09 Fair CLR 10.9 -1 44% 75.84 0.0
03 03:15 SW 24 16.09 Fair CLR 11 -0.9 44% 75.87 0.0
03 02:55 SW 24 16.09 Fair CLR 11.5 -0.9 43% 75.9 0.0
03 02:35 SW 24 G 33 16.09 Fair CLR 11.2 -0.8 44% 75.92 0.0
03 02:15 SW 24 16.09 Fair CLR 11.7 -1.2 41% 75.92 0.0
03 01:55 SW 26 16.09 Fair CLR 11.6 -1.2 41% 75.95 0.0
03 01:35 SW 28 16.09 Fair CLR 12.2 -1.5 39% 75.95 0.0
03 01:15 SW 28 G 39 16.09 Fair CLR 12.5 -1.5 38% 75.95 0.0
03 00:55 SW 28 16.09 Fair CLR 12.3 -1.1 21.3 12.3 40% 75.97 0.0
03 00:35 SW 26 16.09 Fair CLR 12.6 -1.1 39% 75.97 0.0
03 00:15 SW 26 16.09 Fair CLR 13 -1.2 38% 75.97 0.0
02 23:55 SW 30 G 39 16.09 Fair CLR 13.5 -1.5 36% 75.97 0.0
02 23:35 SW 28 16.09 Fair CLR 13.7 -1.5 35% 75.97 0.0
02 23:15 S 28 G 41 16.09 Fair CLR 14.1 -1.8 34% 76 0.0
02 22:55 S 28 G 41 16.09 Fair CLR 14.3 -1.9 33% 76.02 0.0
02 22:35 S 26 G 37 16.09 Fair CLR 14.5 -2 32% 76.02 0.0
02 22:15 S 28 G 39 16.09 Fair CLR 15.5 -2.4 29% 76.05 0.0
02 21:55 S 26 G 33 16.09 Fair CLR 15.9 -2.3 29% 76.05 0.0
02 21:35 S 19 16.09 Fair CLR 16.5 -1.5 29% 76.07 0.0
02 21:15 S 17 16.09 Fair CLR 17.1 -1.3 29% 76.07 0.0
02 20:55 S 15 16.09 Fair CLR 17.5 -2 27% 76.07 0.0
02 20:35 S 15 16.09 Fair CLR 18.2 -1.3 27% 76.07 0.0
02 20:15 S 11 16.09 Fair CLR 17.5 -0.9 29% 76.1 0.0
02 19:55 SW 15 16.09 Fair CLR 19.9 -2.5 22% 76.1 0.0
02 19:35 SW 15 16.09 Fair CLR 20.8 -3.1 20% 76.1 0.0
02 19:15 SW 20 16.09 Fair CLR 21.1 -3.3 19% 76.12 0.0
02 18:55 W 19 16.09 Fair CLR 21.5 -3.9 21.6 17.3 18% 76.15 0.0
02 18:35 SW 17 G 28 16.09 Fair CLR 21.2 -4.9 17% 76.15 0.0
02 18:15 W 22 G 30 16.09 Fair CLR 21.4 -4.8 17% 76.17 0.0
02 17:55 SW 24 16.09 Fair CLR 21.5 -4.8 17% 76.2 0.0
02 17:35 W 13 G 26 16.09 Fair CLR 21.1 -5.4 16% 76.23 0.0
02 17:15 SW 15 G 30 16.09 Fair CLR 21 -5.8 16% 76.23 0.0
02 16:35 SW 24 G 33 16.09 Fair CLR 21.2 -5.8 16% 76.28 0.0
02 16:15 SW 20 G 30 16.09 Fair CLR 20.4 -5.7 17% 76.3 0.0
02 15:55 W 19 16.09 Fair CLR 20.3 -6.2 16% 76.33 0.0
02 15:35 W 11 G 31 16.09 Fair CLR 20.4 -5.8 17% 76.35 0.0
02 15:15 SW 20 G 31 16.09 Fair CLR 20 -5.5 17% 76.38 0.0
02 14:35 SW 9 16.09 Fair CLR 19.1 -4.5 20% 76.4 0.0
02 14:15 W 11 16.09 Fair CLR 19 -4.5 20% 76.43 0.0
02 13:55 W 15 16.09 Fair CLR 18.6 -5.2 19% 76.45 0.0
02 13:35 W 19 G 31 16.09 Fair CLR 18.4 -4.5 21% 76.48 0.0
02 13:15 W 26 G 33 16.09 Fair CLR 17.7 -5.1 21% 76.5 0.0
02 12:55 SW 19 G 26 16.09 Fair CLR 17.2 -4.9 17.4 0.1 22% 76.53 0.0
02 12:35 Calm 16.09 Fair CLR 16.6 -4.2 24% 76.56 0.0
02 12:15 W 17 16.09 Fair CLR 16.8 -3.6 25% 76.58 0.0
02 11:55 W 20 G 30 16.09 Fair CLR 16.8 -3.4 25% 76.61 0.0
02 11:35 W 13 16.09 Fair CLR 15.4 -3.7 27% 76.61 0.0
02 11:15 NW 13 16.09 Fair CLR 15.2 -2.7 29% 76.63 0.0
02 10:55 W 13 16.09 Fair CLR 14.6 -1.7 33% 76.66 0.0
02 10:35 W 11 16.09 Fair CLR 13.9 -1.6 35% 76.66 0.0
02 10:15 W 17 16.09 Fair CLR 13.1 -2.1 35% 76.66 0.0
02 09:55 W 15 16.09 Fair CLR 12.5 -2.1 36% 76.66 0.0
02 09:35 SW 11 16.09 Fair CLR 11.5 -2 39% 76.66 0.0
02 09:15 W 13 16.09 Fair CLR 10.5 -1.2 44% 76.66 0.0
02 08:55 W 9 16.09 Fair CLR 9.3 -0.3 51% 8 76.68 0.0
02 08:35 W 11 16.09 Fair CLR 7.5 -0.3 58% 6 76.68 0.0
02 08:15 W 9 16.09 Fair CLR 5.8 -0.4 65% 4 76.68 0.0
02 07:55 W 11 16.09 Fair CLR 4.9 0 71% 3 76.68 0.0
02 07:35 Calm 16.09 Fair CLR 2.7 -0.8 78% 76.66 0.0
02 07:15 W 6 16.09 Fair CLR 1 -2.1 80% 76.66 0.0
02 06:55 W 7 16.09 Fair CLR 0 -2.9 4.6 -0.2 81% -2 76.66 0.0
02 06:35 W 7 16.09 Fair CLR 0.1 -3.4 78% -2 76.66 0.0
02 06:15 W 6 16.09 Fair CLR 0.8 -2.8 77% 76.66 0.0
02 05:55 W 9 16.09 Fair CLR 0.3 -3.2 78% -2 76.66 0.0
02 05:35 W 9 16.09 Fair CLR 0.3 -3.3 77% -2 76.66 0.0
02 05:15 W 9 16.09 Fair CLR 0.2 -3.3 78% -3 76.66 0.0
02 04:55 W 6 16.09 Fair CLR 0.9 -3.4 73% 76.66 0.0
02 04:35 W 7 16.09 Fair CLR 0.6 -3.5 74% -1 76.66 0.0
02 04:15 W 9 16.09 Fair CLR 0.7 -3.2 75% -2 76.66 0.0
02 03:55 W 9 16.09 Fair CLR 0.5 -3.3 76% -2 76.63 0.0
02 03:35 W 9 16.09 Fair CLR 1 -3.3 73% -2 76.63 0.0
02 03:15 W 9 16.09 Fair CLR 0.5 -3.5 75% -2 76.66 0.0
02 02:55 W 9 16.09 Fair CLR 0.7 -3 77% -2 76.66 0.0
02 02:35 W 6 16.09 Fair CLR 1.1 -2.9 75% 76.66 0.0
02 02:15 W 6 16.09 Fair CLR 1.4 -2.8 74% 76.66 0.0
02 01:55 Calm 16.09 Fair CLR 2.2 -3.2 68% 76.66 0.0
02 01:35 Calm 16.09 Fair CLR 2.3 -2.6 70% 76.66 0.0
02 01:15 N 6 16.09 Fair CLR 3.6 -3.1 62% 76.63 0.0
02 00:55 N 7 16.09 Fair CLR 4.5 -2.3 14.5 4 62% 3 76.63 0.0
02 00:35 N 7 16.09 Fair CLR 4.9 -2.8 58% 3 76.63 0.0
02 00:15 NE 6 16.09 Fair CLR 4.8 -2.2 61% 76.63 0.0
01 23:55 Calm 16.09 Fair CLR 4.6 -2.6 60% 76.61 0.0
01 23:35 Calm 16.09 Fair CLR 5.4 -2.4 58% 76.61 0.0
01 23:15 Calm 16.09 Fair CLR 5.5 -2.3 58% 76.61 0.0
01 22:55 NE 6 16.09 Fair CLR 5.7 -2.2 57% 76.58 0.0
01 22:35 NE 9 16.09 Fair CLR 5.5 -1.9 59% 4 76.58 0.0
01 22:15 NE 9 16.09 Fair CLR 6.4 -2.1 55% 5 76.56 0.0
01 21:55 NE 11 16.09 Fair CLR 6.4 -2 55% 4 76.53 0.0
01 21:35 NE 11 16.09 Fair CLR 7.5 -2.5 49% 6 76.5 0.0
01 21:15 NE 11 16.09 Fair CLR 8.1 -2.5 48% 6 76.48 0.0
01 20:35 NE 15 16.09 Fair CLR 10.6 -3.7 37% 76.45 0.0
01 20:15 N 15 16.09 Fair CLR 12.1 -4.5 31% 76.43 0.0
01 19:55 N 13 16.09 Fair CLR 13.1 -4.1 30% 76.43 0.0
01 19:35 N 24 16.09 Fair CLR 14 -4.4 28% 76.4 0.0
01 19:15 N 20 16.09 Fair CLR 14.2 -4.2 28% 76.4 0.0
01 18:55 N 20 G 35 16.09 Fair CLR 14.6 -4.2 16.1 13.4 27% 76.4 0.0
01 18:35 N 22 G 35 16.09 Fair CLR 15.1 -3.8 27% 76.4 0.0
01 18:15 N 24 16.09 Fair CLR 15.1 -3.7 27% 76.38 0.0
01 17:55 N 19 G 31 16.09 Partly Cloudy SCT075 15.3 -3.1 28% 76.38 0.0
01 17:35 N 22 G 37 16.09 Partly Cloudy SCT075 16 -2.4 28% 76.4 0.0
01 17:15 N 28 G 33 16.09 Partly Cloudy SCT075 15.5 -2.5 29% 76.4 0.0
01 16:55 N 15 G 33 16.09 Partly Cloudy SCT075 15.8 -1.8 30% 76.4 0.0
01 16:35 N 19 G 37 16.09 Partly Cloudy SCT080 16 -1.8 30% 76.4 0.0
01 16:15 N 22 G 41 16.09 Overcast OVC070 15.8 -1.4 31% 76.43 0.0
01 15:55 N 7 G 31 16.09 Mostly Cloudy BKN070 BKN095 14.5 -1.8 33% 76.43 0.0
01 15:35 N 15 16.09 Partly Cloudy SCT095 14.5 -1.8 33% 76.45 0.0
01 15:15 N 20 G 33 16.09 Partly Cloudy SCT095 15.2 -2 31% 76.45 0.0
01 14:55 N 22 G 31 16.09 Fair CLR 14.8 -0.7 35% 76.48 0.0
01 14:35 N 11 G 28 16.09 Fair CLR 14.4 -0.9 35% 76.48 0.0
01 14:15 N 19 G 31 16.09 Partly Cloudy SCT080 14.3 -0.6 36% 76.48 0.0
01 13:55 N 19 G 31 16.09 Partly Cloudy SCT080 14.3 -0.4 37% 76.48 0.0
01 13:35 NE 15 G 30 16.09 Fair CLR 14 -0.1 38% 76.48 0.0
01 13:15 N 20 G 30 16.09 Fair CLR 13.9 -0.2 38% 76.48 0.0
01 12:55 N 22 G 31 16.09 Fair CLR 13.2 -0.2 13.5 2 40% 76.5 0.0
01 12:35 N 19 G 30 16.09 Fair CLR 13.1 0 41% 76.5 0.0
01 12:15 N 17 G 39 16.09 Fair CLR 12.7 -0.9 39% 76.53 0.0
01 11:55 N 22 G 33 16.09 Fair CLR 12.6 -0.4 41% 76.53 0.0
01 11:35 NE 22 G 31 16.09 Fair CLR 12.1 0 44% 76.5 0.0
01 11:15 N 28 16.09 Fair CLR 11.5 0.1 46% 76.53 0.0
01 10:55 N 19 G 30 16.09 Fair CLR 11.2 1.5 52% 76.5 0.0
01 10:35 N 26 G 37 16.09 Fair CLR 10.6 0.5 50% 76.5 0.0
01 10:15 N 26 G 33 16.09 Fair CLR 10.2 0.4 51% 76.5 0.0
01 09:55 N 26 G 33 16.09 Fair CLR 9.8 1.7 57% 7 76.5 0.0
01 09:35 N 26 16.09 Fair CLR 9 1.3 59% 6 76.5 0.0
01 09:15 N 19 16.09 Fair CLR 8.1 1 61% 5 76.48 0.0
01 08:55 N 17 16.09 Fair CLR 7.4 0.8 63% 5 76.5 0.0
01 08:35 N 19 16.09 Fair CLR 6.8 0.8 66% 4 76.5 0.0
01 08:15 N 13 16.09 Fair CLR 5.7 0.6 70% 3 76.48 0.0
01 07:55 NW 13 16.09 Fair CLR 4.7 0.5 75% 2 76.48 0.0
01 07:35 NW 11 16.09 Fair CLR 3.6 0 78% 1 76.48 0.0
Date Time (cdt) Wind (kph) Vis. (km) Weather Sky Cond. Air Dwpt Max. Min. Relative Humidity Wind Chill (°C) Heat Index (°C) altimeter (cm) sea level (mb) 1 hr 3 hr 6 hr
6 hour
Temperature (ºC) Pressure Precipitation (cm)